หน้าหลัก
METAR-TAF:

METAR-TAF

ท่าอากาศยาน :

เกาะคริสต์มาส, ออสเตรเลีย

ละติจูด: 10-26S, ลองจิจูด: 105-41E, ความสูง: 279 ม.

การสังเกตสภาพอากาศปัจจุบัน

รายงานได้ทำขึ้นเมื่อ 38 นาทีที่แล้ว ณ เวลา 19:00 UTC
ลม 8 นอตจากตะวันออก
อุณหภูมิ 25°C
ความชื้น 89%
ความกดอากาศ 1013 hPa
ทัศนวิสัย 10 กม. หรือมากกว่า
มีเมฆเป็นส่วนมากเว้นเป็นระยะที่ความสูง 1100 ฟุต

METAR: YPXM 271900Z AUTO 09008KT 9999 // BKN011 25/23 Q1013 RF00.0/000.0

เวลา: 02:38 (19:38 UTC)

การพยากรณ์

รายงานได้ทำขึ้นเมื่อ 2 ชั่วโมงและ 28 นาทีที่แล้ว ณ เวลา 17:10 UTC
การพยากรณ์มีผลตั้งแต่วันที่ 27 ณ เวลา 18 UTC จนถึงวันที่ 28 ณ เวลา 18 UTC
ลม 12 นอตจากตะวันออก
ทัศนวิสัย 10 กม. หรือมากกว่า
มีเมฆเป็นส่วนมากเว้นเป็นระยะที่ความสูง 1100 ฟุต
จาก 28 ณ เวลา 0100 UTC
ลม 14 นอตจากตะวันออก
ทัศนวิสัย 10 กม. หรือมากกว่า
มีเมฆเป็นส่วนมากเว้นเป็นระยะที่ความสูง 1400 ฟุต
จาก 28 ณ เวลา 1000 UTC
ลม 12 นอตจากตะวันออก/ตะวันออกเฉียงใต้
ทัศนวิสัย 10 กม. หรือมากกว่า
มีเมฆเป็นส่วนมากเว้นเป็นระยะที่ความสูง 1000 ฟุต

TAF: YPXM 271710Z 2718/2818 10012KT 9999 BKN011 FM280100 10014KT 9999 BKN014 FM281000 12012KT 9999 BKN010

สังเกตการณ์สภาพอากาศและพยากรณ์อากาศของสนามบินมากกว่า 4000 แห่ง (รายงาน METAR และ TAF).

สถานีที่ดูได้จะแสดงไว้ด้วยจุดสีเหลืองและสีแดงบนแผนที่.

เลื่อนเมาส์ไปเหนือจุดเพื่อดูชื่อสถานี.

แล้วคลิกเพื่อดูสังเกตการณ์และการพยากรณ์สภาพอากาศ.

ในการเปลี่ยนแผนที่: คลิกที่ปุ่มสีเขียวที่มีกากบาทสีดำเพื่อซูมเข้า; ที่ปุ่มสีเขียวที่มีขีดเพื่อซูมออก; หรือที่ลูกศรสีเขียวเพื่อไปยังแผนที่ที่อยู่ติดกัน.


METAR-TAF: